sensor_id;sensor_type;location;lat;lon;timestamp;pressure;altitude;pressure_sealevel;temperature;humidity
15604;BME280;7902;49.042;9.092;2024-03-06T00:00:50;99140.31;;;11.31;62.30
15604;BME280;7902;49.042;9.092;2024-03-06T00:03:16;99135.03;;;11.31;61.78
15604;BME280;7902;49.042;9.092;2024-03-06T00:05:55;99139.34;;;11.32;62.31
15604;BME280;7902;49.042;9.092;2024-03-06T00:08:30;99140.59;;;11.39;61.41
15604;BME280;7902;49.042;9.092;2024-03-06T00:11:07;99142.72;;;11.34;61.62
15604;BME280;7902;49.042;9.092;2024-03-06T00:13:35;99144.72;;;11.30;61.79
15604;BME280;7902;49.042;9.092;2024-03-06T00:16:10;99150.38;;;11.37;62.22
15604;BME280;7902;49.042;9.092;2024-03-06T00:18:41;99145.09;;;11.37;61.76
15604;BME280;7902;49.042;9.092;2024-03-06T00:21:07;99145.59;;;11.42;62.13
15604;BME280;7902;49.042;9.092;2024-03-06T00:23:35;99138.91;;;11.38;62.44
15604;BME280;7902;49.042;9.092;2024-03-06T00:26:05;99148.06;;;11.32;62.04
15604;BME280;7902;49.042;9.092;2024-03-06T00:28:33;99148.72;;;11.47;61.50
15604;BME280;7902;49.042;9.092;2024-03-06T00:31:02;99144.44;;;11.57;61.54
15604;BME280;7902;49.042;9.092;2024-03-06T00:33:28;99146.25;;;11.57;61.92
15604;BME280;7902;49.042;9.092;2024-03-06T00:35:54;99142.72;;;11.45;61.56
15604;BME280;7902;49.042;9.092;2024-03-06T00:38:23;99146.66;;;11.39;61.66
15604;BME280;7902;49.042;9.092;2024-03-06T00:40:49;99149.78;;;11.44;61.35
15604;BME280;7902;49.042;9.092;2024-03-06T00:43:17;99158.34;;;11.35;61.72
15604;BME280;7902;49.042;9.092;2024-03-06T00:45:43;99151.59;;;11.44;61.51
15604;BME280;7902;49.042;9.092;2024-03-06T00:48:13;99155.53;;;11.38;62.28
15604;BME280;7902;49.042;9.092;2024-03-06T00:50:39;99150.97;;;11.40;61.73
15604;BME280;7902;49.042;9.092;2024-03-06T00:53:06;99153.72;;;11.39;61.70
15604;BME280;7902;49.042;9.092;2024-03-06T00:55:34;99156.22;;;11.40;62.44
15604;BME280;7902;49.042;9.092;2024-03-06T00:58:00;99149.63;;;11.35;62.14
15604;BME280;7902;49.042;9.092;2024-03-06T01:00:27;99159.19;;;11.36;61.75
15604;BME280;7902;49.042;9.092;2024-03-06T01:03:22;99156.06;;;11.31;62.22
15604;BME280;7902;49.042;9.092;2024-03-06T01:05:51;99166.13;;;11.37;62.30
15604;BME280;7902;49.042;9.092;2024-03-06T01:08:22;99155.72;;;11.24;62.53
15604;BME280;7902;49.042;9.092;2024-03-06T01:10:53;99154.19;;;11.33;61.90
15604;BME280;7902;49.042;9.092;2024-03-06T01:13:22;99145.34;;;11.34;62.02
15604;BME280;7902;49.042;9.092;2024-03-06T01:15:53;99154.41;;;11.30;62.15
15604;BME280;7902;49.042;9.092;2024-03-06T01:18:22;99157.75;;;11.32;61.97
15604;BME280;7902;49.042;9.092;2024-03-06T01:20:48;99158.19;;;11.26;62.44
15604;BME280;7902;49.042;9.092;2024-03-06T01:23:17;99156.75;;;11.22;62.69
15604;BME280;7902;49.042;9.092;2024-03-06T01:25:46;99161.72;;;11.37;62.62
15604;BME280;7902;49.042;9.092;2024-03-06T01:28:12;99165.91;;;11.40;61.66
15604;BME280;7902;49.042;9.092;2024-03-06T01:30:38;99173.06;;;11.38;62.03
15604;BME280;7902;49.042;9.092;2024-03-06T01:33:04;99169.94;;;11.33;62.43
15604;BME280;7902;49.042;9.092;2024-03-06T01:35:35;99170.19;;;11.30;61.76
15604;BME280;7902;49.042;9.092;2024-03-06T01:38:01;99190.25;;;11.31;62.81
15604;BME280;7902;49.042;9.092;2024-03-06T01:40:27;99172.09;;;11.28;62.38
15604;BME280;7902;49.042;9.092;2024-03-06T01:42:55;99175.91;;;11.24;63.05
15604;BME280;7902;49.042;9.092;2024-03-06T01:45:22;99163.69;;;11.23;62.78
15604;BME280;7902;49.042;9.092;2024-03-06T01:47:47;99174.66;;;11.17;63.00
15604;BME280;7902;49.042;9.092;2024-03-06T01:50:13;99178.72;;;11.21;63.19
15604;BME280;7902;49.042;9.092;2024-03-06T01:52:41;99176.56;;;11.15;62.74
15604;BME280;7902;49.042;9.092;2024-03-06T01:55:08;99184.47;;;11.15;62.99
15604;BME280;7902;49.042;9.092;2024-03-06T01:57:35;99181.34;;;11.21;62.64
15604;BME280;7902;49.042;9.092;2024-03-06T02:00:02;99176.34;;;11.18;62.50
15604;BME280;7902;49.042;9.092;2024-03-06T02:02:30;99173.72;;;11.18;62.76
15604;BME280;7902;49.042;9.092;2024-03-06T02:04:56;99168.44;;;11.18;62.63
15604;BME280;7902;49.042;9.092;2024-03-06T02:07:24;99165.13;;;11.16;62.64
15604;BME280;7902;49.042;9.092;2024-03-06T02:09:50;99173.22;;;11.13;62.96
15604;BME280;7902;49.042;9.092;2024-03-06T02:12:16;99178.69;;;11.10;63.29
15604;BME280;7902;49.042;9.092;2024-03-06T02:14:46;99180.94;;;11.03;62.87
15604;BME280;7902;49.042;9.092;2024-03-06T02:17:12;99178.88;;;10.95;62.93
15604;BME280;7902;49.042;9.092;2024-03-06T02:19:41;99181.84;;;11.15;62.74
15604;BME280;7902;49.042;9.092;2024-03-06T02:22:10;99189.47;;;11.18;62.78
15604;BME280;7902;49.042;9.092;2024-03-06T02:24:37;99188.47;;;11.08;62.32
15604;BME280;7902;49.042;9.092;2024-03-06T02:27:04;99192.63;;;11.23;62.07
15604;BME280;7902;49.042;9.092;2024-03-06T02:29:35;99192.44;;;11.13;63.20
15604;BME280;7902;49.042;9.092;2024-03-06T02:32:02;99187.09;;;11.15;62.04
15604;BME280;7902;49.042;9.092;2024-03-06T02:34:33;99189.06;;;11.11;62.15
15604;BME280;7902;49.042;9.092;2024-03-06T02:36:59;99186.69;;;11.08;62.16
15604;BME280;7902;49.042;9.092;2024-03-06T02:39:25;99187.25;;;11.00;63.19
15604;BME280;7902;49.042;9.092;2024-03-06T02:41:56;99187.75;;;11.06;62.89
15604;BME280;7902;49.042;9.092;2024-03-06T02:44:25;99186.69;;;11.08;62.11
15604;BME280;7902;49.042;9.092;2024-03-06T02:46:51;99178.09;;;11.06;62.45
15604;BME280;7902;49.042;9.092;2024-03-06T02:49:20;99180.81;;;11.05;62.63
15604;BME280;7902;49.042;9.092;2024-03-06T02:51:46;99180.72;;;11.06;63.08
15604;BME280;7902;49.042;9.092;2024-03-06T02:54:17;99174.63;;;11.06;62.43
15604;BME280;7902;49.042;9.092;2024-03-06T02:56:43;99177.25;;;11.06;62.46
15604;BME280;7902;49.042;9.092;2024-03-06T02:59:11;99182.03;;;11.12;61.95
15604;BME280;7902;49.042;9.092;2024-03-06T03:01:38;99182.28;;;11.09;62.23
15604;BME280;7902;49.042;9.092;2024-03-06T03:04:07;99191.09;;;11.08;62.44
15604;BME280;7902;49.042;9.092;2024-03-06T03:06:33;99185.22;;;11.04;63.18
15604;BME280;7902;49.042;9.092;2024-03-06T03:08:59;99185.22;;;11.04;63.38
15604;BME280;7902;49.042;9.092;2024-03-06T03:11:27;99181.06;;;11.02;63.07
15604;BME280;7902;49.042;9.092;2024-03-06T03:13:53;99182.72;;;11.02;63.41
15604;BME280;7902;49.042;9.092;2024-03-06T03:16:19;99173.94;;;10.91;63.50
15604;BME280;7902;49.042;9.092;2024-03-06T03:18:48;99177.00;;;10.85;62.71
15604;BME280;7902;49.042;9.092;2024-03-06T03:21:19;99178.09;;;10.82;63.43
15604;BME280;7902;49.042;9.092;2024-03-06T03:23:51;99187.63;;;10.83;64.13
15604;BME280;7902;49.042;9.092;2024-03-06T03:26:17;99188.88;;;10.90;63.59
15604;BME280;7902;49.042;9.092;2024-03-06T03:28:43;99194.63;;;10.95;62.85
15604;BME280;7902;49.042;9.092;2024-03-06T03:31:11;99194.13;;;10.90;63.19
15604;BME280;7902;49.042;9.092;2024-03-06T03:33:41;99192.19;;;10.92;63.43
15604;BME280;7902;49.042;9.092;2024-03-06T03:36:08;99194.19;;;11.02;63.23
15604;BME280;7902;49.042;9.092;2024-03-06T03:38:38;99193.69;;;10.96;62.54
15604;BME280;7902;49.042;9.092;2024-03-06T03:41:10;99186.94;;;10.92;62.92
15604;BME280;7902;49.042;9.092;2024-03-06T03:43:40;99190.31;;;10.94;62.89
15604;BME280;7902;49.042;9.092;2024-03-06T03:46:06;99186.25;;;10.90;62.70
15604;BME280;7902;49.042;9.092;2024-03-06T03:48:39;99191.00;;;10.85;63.20
15604;BME280;7902;49.042;9.092;2024-03-06T03:51:06;99186.34;;;10.89;62.54
15604;BME280;7902;49.042;9.092;2024-03-06T03:53:36;99189.97;;;10.99;63.39
15604;BME280;7902;49.042;9.092;2024-03-06T03:56:02;99194.63;;;10.95;63.03
15604;BME280;7902;49.042;9.092;2024-03-06T03:58:31;99194.84;;;10.92;62.64
15604;BME280;7902;49.042;9.092;2024-03-06T04:00:58;99201.84;;;11.05;62.56
15604;BME280;7902;49.042;9.092;2024-03-06T04:03:30;99194.91;;;11.04;63.15
15604;BME280;7902;49.042;9.092;2024-03-06T04:06:02;99199.81;;;10.84;63.13
15604;BME280;7902;49.042;9.092;2024-03-06T04:08:35;99198.31;;;10.93;62.77
15604;BME280;7902;49.042;9.092;2024-03-06T04:11:01;99197.19;;;11.08;63.09
15604;BME280;7902;49.042;9.092;2024-03-06T04:13:27;99192.53;;;11.12;61.78
15604;BME280;7902;49.042;9.092;2024-03-06T04:15:59;99207.38;;;11.13;62.66
15604;BME280;7902;49.042;9.092;2024-03-06T04:18:34;99206.19;;;11.17;62.12
15604;BME280;7902;49.042;9.092;2024-03-06T04:21:12;99206.59;;;11.23;61.88
15604;BME280;7902;49.042;9.092;2024-03-06T04:23:43;99208.44;;;11.10;62.24
15604;BME280;7902;49.042;9.092;2024-03-06T04:26:09;99212.09;;;11.20;62.36
15604;BME280;7902;49.042;9.092;2024-03-06T04:28:44;99214.97;;;11.28;62.06
15604;BME280;7902;49.042;9.092;2024-03-06T04:31:10;99218.81;;;11.12;62.15
15604;BME280;7902;49.042;9.092;2024-03-06T04:33:36;99215.84;;;11.16;62.99
15604;BME280;7902;49.042;9.092;2024-03-06T04:36:03;99227.97;;;11.19;62.36
15604;BME280;7902;49.042;9.092;2024-03-06T04:38:31;99221.25;;;11.15;62.22
15604;BME280;7902;49.042;9.092;2024-03-06T04:40:57;99226.84;;;11.10;62.43
15604;BME280;7902;49.042;9.092;2024-03-06T04:43:23;99233.75;;;11.11;62.32
15604;BME280;7902;49.042;9.092;2024-03-06T04:45:52;99232.19;;;11.09;62.81
15604;BME280;7902;49.042;9.092;2024-03-06T04:48:18;99235.72;;;10.96;63.43
15604;BME280;7902;49.042;9.092;2024-03-06T04:50:44;99246.00;;;10.99;62.70
15604;BME280;7902;49.042;9.092;2024-03-06T04:53:10;99238.28;;;11.09;62.09
15604;BME280;7902;49.042;9.092;2024-03-06T04:55:37;99245.78;;;11.02;62.55
15604;BME280;7902;49.042;9.092;2024-03-06T04:58:04;99248.19;;;11.06;62.52
15604;BME280;7902;49.042;9.092;2024-03-06T05:00:30;99244.94;;;11.02;61.91
15604;BME280;7902;49.042;9.092;2024-03-06T05:02:56;99247.56;;;11.02;62.96
15604;BME280;7902;49.042;9.092;2024-03-06T05:05:25;99251.44;;;11.09;62.00
15604;BME280;7902;49.042;9.092;2024-03-06T05:07:51;99261.53;;;11.02;62.27
15604;BME280;7902;49.042;9.092;2024-03-06T05:10:18;99263.31;;;11.02;62.71
15604;BME280;7902;49.042;9.092;2024-03-06T05:12:43;99262.72;;;10.98;62.33
15604;BME280;7902;49.042;9.092;2024-03-06T05:15:10;99265.34;;;10.98;62.73
15604;BME280;7902;49.042;9.092;2024-03-06T05:17:39;99271.34;;;11.00;63.18
15604;BME280;7902;49.042;9.092;2024-03-06T05:20:06;99268.91;;;10.97;63.18
15604;BME280;7902;49.042;9.092;2024-03-06T05:22:32;99277.53;;;10.99;63.19
15604;BME280;7902;49.042;9.092;2024-03-06T05:24:58;99268.53;;;10.91;63.99
15604;BME280;7902;49.042;9.092;2024-03-06T05:27:25;99281.97;;;10.86;63.54
15604;BME280;7902;49.042;9.092;2024-03-06T05:29:52;99279.22;;;10.88;63.53
15604;BME280;7902;49.042;9.092;2024-03-06T05:32:18;99289.03;;;10.86;63.43
15604;BME280;7902;49.042;9.092;2024-03-06T05:34:44;99287.25;;;10.86;63.71
15604;BME280;7902;49.042;9.092;2024-03-06T05:37:10;99286.63;;;10.83;63.66
15604;BME280;7902;49.042;9.092;2024-03-06T05:39:36;99290.84;;;10.73;63.57
15604;BME280;7902;49.042;9.092;2024-03-06T05:42:08;99287.88;;;10.77;63.31
15604;BME280;7902;49.042;9.092;2024-03-06T05:44:34;99292.16;;;10.78;63.97
15604;BME280;7902;49.042;9.092;2024-03-06T05:47:03;99295.84;;;10.88;63.96
15604;BME280;7902;49.042;9.092;2024-03-06T05:49:29;99288.59;;;10.79;63.24
15604;BME280;7902;49.042;9.092;2024-03-06T05:51:56;99298.91;;;10.82;64.38
15604;BME280;7902;49.042;9.092;2024-03-06T05:54:22;99294.28;;;10.86;64.13
15604;BME280;7902;49.042;9.092;2024-03-06T05:56:49;99298.50;;;10.76;63.95
15604;BME280;7902;49.042;9.092;2024-03-06T05:59:17;99292.69;;;10.83;63.80
15604;BME280;7902;49.042;9.092;2024-03-06T06:01:46;99297.84;;;10.85;63.27
15604;BME280;7902;49.042;9.092;2024-03-06T06:04:15;99302.72;;;11.02;63.30
15604;BME280;7902;49.042;9.092;2024-03-06T06:06:44;99313.75;;;11.07;63.40
15604;BME280;7902;49.042;9.092;2024-03-06T06:09:13;99317.69;;;11.02;62.88
15604;BME280;7902;49.042;9.092;2024-03-06T06:11:47;99316.63;;;11.04;63.50
15604;BME280;7902;49.042;9.092;2024-03-06T06:14:16;99317.88;;;10.98;63.11
15604;BME280;7902;49.042;9.092;2024-03-06T06:20:12;99322.06;;;11.14;61.95
15604;BME280;7902;49.042;9.092;2024-03-06T06:23:31;99324.19;;;11.09;62.28
15604;BME280;7902;49.042;9.092;2024-03-06T06:26:00;99333.34;;;10.90;63.53
15604;BME280;7902;49.042;9.092;2024-03-06T06:28:37;99337.03;;;11.00;63.38
15604;BME280;7902;49.042;9.092;2024-03-06T06:31:16;99334.50;;;10.99;62.90
15604;BME280;7902;49.042;9.092;2024-03-06T06:33:42;99338.81;;;11.00;62.62
15604;BME280;7902;49.042;9.092;2024-03-06T06:36:29;99337.25;;;10.85;63.40
15604;BME280;7902;49.042;9.092;2024-03-06T06:39:20;99346.06;;;10.96;62.71
15604;BME280;7902;49.042;9.092;2024-03-06T06:41:52;99346.06;;;10.96;62.90
15604;BME280;7902;49.042;9.092;2024-03-06T06:44:29;99351.34;;;10.96;63.83
15604;BME280;7902;49.042;9.092;2024-03-06T06:47:24;99360.75;;;11.12;62.89
15604;BME280;7902;49.042;9.092;2024-03-06T06:49:53;99349.22;;;11.02;62.70
15604;BME280;7902;49.042;9.092;2024-03-06T06:52:24;99359.91;;;11.11;63.52
15604;BME280;7902;49.042;9.092;2024-03-06T06:54:53;99360.78;;;10.99;63.32
15604;BME280;7902;49.042;9.092;2024-03-06T06:57:25;99362.22;;;11.03;63.55
15604;BME280;7902;49.042;9.092;2024-03-06T06:59:57;99369.59;;;11.11;62.81
15604;BME280;7902;49.042;9.092;2024-03-06T07:02:26;99367.81;;;10.98;63.74
15604;BME280;7902;49.042;9.092;2024-03-06T07:05:01;99366.84;;;11.12;63.32
15604;BME280;7902;49.042;9.092;2024-03-06T07:07:38;99362.84;;;11.07;63.28
15604;BME280;7902;49.042;9.092;2024-03-06T07:10:17;99366.84;;;11.12;63.10
15604;BME280;7902;49.042;9.092;2024-03-06T07:13:03;99376.22;;;11.04;63.47
15604;BME280;7902;49.042;9.092;2024-03-06T07:15:52;99377.97;;;11.28;62.94
15604;BME280;7902;49.042;9.092;2024-03-06T07:18:36;99378.94;;;11.15;63.23
15604;BME280;7902;49.042;9.092;2024-03-06T07:21:05;99378.38;;;11.22;63.45
15604;BME280;7902;49.042;9.092;2024-03-06T07:23:39;99385.75;;;11.30;63.40
15604;BME280;7902;49.042;9.092;2024-03-06T07:26:05;99382.19;;;11.18;63.17
15604;BME280;7902;49.042;9.092;2024-03-06T07:28:35;99383.66;;;11.22;63.16
15604;BME280;7902;49.042;9.092;2024-03-06T07:31:06;99386.38;;;11.21;63.51
15604;BME280;7902;49.042;9.092;2024-03-06T07:33:45;99393.75;;;11.03;64.10
15604;BME280;7902;49.042;9.092;2024-03-06T07:36:22;99394.84;;;11.00;63.85
15604;BME280;7902;49.042;9.092;2024-03-06T07:38:54;99388.00;;;11.11;63.45
15604;BME280;7902;49.042;9.092;2024-03-06T07:41:26;99394.72;;;11.15;63.73
15604;BME280;7902;49.042;9.092;2024-03-06T07:43:57;99399.84;;;11.16;63.13
15604;BME280;7902;49.042;9.092;2024-03-06T07:46:32;99398.16;;;11.28;64.02
15604;BME280;7902;49.042;9.092;2024-03-06T07:49:04;99403.31;;;11.29;62.87
15604;BME280;7902;49.042;9.092;2024-03-06T07:51:33;99406.25;;;11.12;63.59
15604;BME280;7902;49.042;9.092;2024-03-06T07:54:02;99403.22;;;11.18;63.29
15604;BME280;7902;49.042;9.092;2024-03-06T07:56:40;99412.88;;;11.18;63.46
15604;BME280;7902;49.042;9.092;2024-03-06T07:59:12;99412.03;;;11.17;64.27
15604;BME280;7902;49.042;9.092;2024-03-06T08:01:50;99419.19;;;11.02;63.88
15604;BME280;7902;49.042;9.092;2024-03-06T08:04:22;99415.50;;;11.18;64.46
15604;BME280;7902;49.042;9.092;2024-03-06T08:06:58;99417.41;;;11.16;64.23
15604;BME280;7902;49.042;9.092;2024-03-06T08:09:29;99418.03;;;11.07;64.37
15604;BME280;7902;49.042;9.092;2024-03-06T08:11:56;99427.19;;;11.14;64.61
15604;BME280;7902;49.042;9.092;2024-03-06T08:14:22;99422.16;;;10.98;64.68
15604;BME280;7902;49.042;9.092;2024-03-06T08:16:49;99426.44;;;11.12;64.30
15604;BME280;7902;49.042;9.092;2024-03-06T08:19:15;99420.03;;;11.03;64.12
15604;BME280;7902;49.042;9.092;2024-03-06T08:21:41;99426.38;;;11.00;65.31
15604;BME280;7902;49.042;9.092;2024-03-06T08:24:07;99426.47;;;10.99;65.23
15604;BME280;7902;49.042;9.092;2024-03-06T08:26:33;99426.78;;;11.20;64.53
15604;BME280;7902;49.042;9.092;2024-03-06T08:28:59;99427.94;;;11.16;64.84
15604;BME280;7902;49.042;9.092;2024-03-06T08:31:25;99429.06;;;11.24;64.34
15604;BME280;7902;49.042;9.092;2024-03-06T08:33:51;99431.91;;;11.34;64.00
15604;BME280;7902;49.042;9.092;2024-03-06T08:36:19;99429.28;;;11.34;64.05
15604;BME280;7902;49.042;9.092;2024-03-06T08:38:45;99428.19;;;11.36;64.18
15604;BME280;7902;49.042;9.092;2024-03-06T08:41:11;99434.41;;;11.48;64.69
15604;BME280;7902;49.042;9.092;2024-03-06T08:43:37;99433.88;;;11.43;64.66
15604;BME280;7902;49.042;9.092;2024-03-06T08:46:03;99442.81;;;11.40;64.12
15604;BME280;7902;49.042;9.092;2024-03-06T08:48:30;99444.59;;;11.40;64.64
15604;BME280;7902;49.042;9.092;2024-03-06T08:50:56;99442.28;;;11.35;65.44
15604;BME280;7902;49.042;9.092;2024-03-06T08:53:22;99445.25;;;11.31;65.51
15604;BME280;7902;49.042;9.092;2024-03-06T08:55:48;99443.13;;;11.36;65.46
15604;BME280;7902;49.042;9.092;2024-03-06T08:58:13;99439.13;;;11.43;64.88
15604;BME280;7902;49.042;9.092;2024-03-06T09:00:39;99447.97;;;11.42;64.66
15604;BME280;7902;49.042;9.092;2024-03-06T09:03:05;99441.63;;;11.57;64.51
15604;BME280;7902;49.042;9.092;2024-03-06T09:05:31;99447.41;;;11.50;65.04
15604;BME280;7902;49.042;9.092;2024-03-06T09:07:57;99450.59;;;11.42;65.59
15604;BME280;7902;49.042;9.092;2024-03-06T09:10:23;99447.69;;;11.70;64.63
15604;BME280;7902;49.042;9.092;2024-03-06T09:12:49;99449.63;;;11.56;65.52
15604;BME280;7902;49.042;9.092;2024-03-06T09:15:15;99447.09;;;11.54;64.60
15604;BME280;7902;49.042;9.092;2024-03-06T09:17:45;99449.19;;;11.62;64.90
15604;BME280;7902;49.042;9.092;2024-03-06T09:20:12;99451.69;;;11.63;64.81
15604;BME280;7902;49.042;9.092;2024-03-06T09:22:39;99450.31;;;11.70;64.53
15604;BME280;7902;49.042;9.092;2024-03-06T09:25:06;99446.75;;;11.71;64.54
15604;BME280;7902;49.042;9.092;2024-03-06T09:27:33;99445.63;;;11.63;64.74
15604;BME280;7902;49.042;9.092;2024-03-06T09:29:59;99452.34;;;11.67;64.71
15604;BME280;7902;49.042;9.092;2024-03-06T09:32:25;99454.84;;;11.81;64.96
15604;BME280;7902;49.042;9.092;2024-03-06T09:34:52;99455.47;;;11.84;65.04
15604;BME280;7902;49.042;9.092;2024-03-06T09:37:19;99456.69;;;11.92;64.25
15604;BME280;7902;49.042;9.092;2024-03-06T09:39:45;99465.94;;;11.97;64.65
15604;BME280;7902;49.042;9.092;2024-03-06T09:42:15;99464.06;;;11.86;64.60
15604;BME280;7902;49.042;9.092;2024-03-06T09:44:41;99464.56;;;12.04;63.57
15604;BME280;7902;49.042;9.092;2024-03-06T09:47:08;99468.91;;;11.93;64.14
15604;BME280;7902;49.042;9.092;2024-03-06T09:49:38;99471.25;;;11.84;64.63
15604;BME280;7902;49.042;9.092;2024-03-06T09:52:05;99463.47;;;11.83;65.02
15604;BME280;7902;49.042;9.092;2024-03-06T09:54:31;99467.88;;;11.82;64.45
15604;BME280;7902;49.042;9.092;2024-03-06T09:56:56;99469.81;;;11.80;65.20
15604;BME280;7902;49.042;9.092;2024-03-06T09:59:23;99475.00;;;11.93;64.44
15604;BME280;7902;49.042;9.092;2024-03-06T10:04:19;99472.88;;;11.98;64.43
15604;BME280;7902;49.042;9.092;2024-03-06T10:06:46;99474.44;;;11.77;65.37
15604;BME280;7902;49.042;9.092;2024-03-06T10:09:12;99475.28;;;12.01;64.53
15604;BME280;7902;49.042;9.092;2024-03-06T10:11:41;99469.19;;;12.01;64.65
15604;BME280;7902;49.042;9.092;2024-03-06T10:14:08;99478.44;;;12.06;64.88
15604;BME280;7902;49.042;9.092;2024-03-06T10:16:36;99481.41;;;12.02;64.63
15604;BME280;7902;49.042;9.092;2024-03-06T10:19:15;99478.09;;;12.11;64.13
15604;BME280;7902;49.042;9.092;2024-03-06T10:21:47;99480.88;;;12.09;64.45
15604;BME280;7902;49.042;9.092;2024-03-06T10:24:21;99485.66;;;12.15;64.64
15604;BME280;7902;49.042;9.092;2024-03-06T10:26:51;99482.66;;;12.09;65.40
15604;BME280;7902;49.042;9.092;2024-03-06T10:29:21;99484.63;;;12.18;64.66
15604;BME280;7902;49.042;9.092;2024-03-06T10:31:55;99484.38;;;12.21;63.54
15604;BME280;7902;49.042;9.092;2024-03-06T10:34:23;99484.38;;;12.21;63.68
15604;BME280;7902;49.042;9.092;2024-03-06T10:36:54;99486.00;;;12.11;63.96
15604;BME280;7902;49.042;9.092;2024-03-06T10:39:20;99489.47;;;12.11;64.43
15604;BME280;7902;49.042;9.092;2024-03-06T10:41:52;99493.69;;;12.14;64.70
15604;BME280;7902;49.042;9.092;2024-03-06T10:44:25;99490.81;;;12.17;64.12
15604;BME280;7902;49.042;9.092;2024-03-06T10:46:58;99489.78;;;12.19;64.52
15604;BME280;7902;49.042;9.092;2024-03-06T10:49:26;99487.53;;;12.26;64.21
15604;BME280;7902;49.042;9.092;2024-03-06T10:52:00;99488.59;;;12.23;64.67
15604;BME280;7902;49.042;9.092;2024-03-06T10:54:27;99495.09;;;12.30;64.42
15604;BME280;7902;49.042;9.092;2024-03-06T10:56:54;99498.38;;;12.21;64.47
15604;BME280;7902;49.042;9.092;2024-03-06T10:59:24;99493.53;;;12.28;63.84
15604;BME280;7902;49.042;9.092;2024-03-06T11:01:54;99498.06;;;12.26;64.42
15604;BME280;7902;49.042;9.092;2024-03-06T11:04:33;99495.09;;;12.30;64.12
15604;BME280;7902;49.042;9.092;2024-03-06T11:07:06;99490.72;;;12.18;64.49
15604;BME280;7902;49.042;9.092;2024-03-06T11:09:34;99495.16;;;12.18;64.70
15604;BME280;7902;49.042;9.092;2024-03-06T11:12:08;99496.00;;;12.18;65.19
15604;BME280;7902;49.042;9.092;2024-03-06T11:14:41;99496.31;;;12.14;65.12
15604;BME280;7902;49.042;9.092;2024-03-06T11:17:10;99494.63;;;12.13;65.68
15604;BME280;7902;49.042;9.092;2024-03-06T11:26:23;99500.63;;;12.15;65.34
15604;BME280;7902;49.042;9.092;2024-03-06T11:28:48;99494.63;;;12.13;65.86
15604;BME280;7902;49.042;9.092;2024-03-06T11:31:19;99503.09;;;12.29;65.48
15604;BME280;7902;49.042;9.092;2024-03-06T11:34:02;99496.38;;;12.25;65.26
15604;BME280;7902;49.042;9.092;2024-03-06T11:36:43;99499.50;;;12.30;65.11
15604;BME280;7902;49.042;9.092;2024-03-06T11:39:16;99490.50;;;12.21;65.54
15604;BME280;7902;49.042;9.092;2024-03-06T11:44:18;99496.16;;;12.28;65.83
15604;BME280;7902;49.042;9.092;2024-03-06T11:46:57;99497.38;;;12.35;65.48
15604;BME280;7902;49.042;9.092;2024-03-06T11:49:30;99495.53;;;12.24;66.19
15604;BME280;7902;49.042;9.092;2024-03-06T11:52:07;99498.13;;;12.37;65.33
15604;BME280;7902;49.042;9.092;2024-03-06T11:54:34;99504.56;;;12.33;66.02
15604;BME280;7902;49.042;9.092;2024-03-06T11:57:17;99501.44;;;12.28;65.94
15604;BME280;7902;49.042;9.092;2024-03-06T12:00:02;99501.19;;;12.31;66.12
15604;BME280;7902;49.042;9.092;2024-03-06T12:02:32;99496.25;;;12.26;65.92
15604;BME280;7902;49.042;9.092;2024-03-06T12:05:17;99496.31;;;12.38;65.51
15604;BME280;7902;49.042;9.092;2024-03-06T12:07:49;99493.78;;;12.36;65.57
15604;BME280;7902;49.042;9.092;2024-03-06T12:10:16;99499.28;;;12.33;66.02
15604;BME280;7902;49.042;9.092;2024-03-06T12:13:00;99498.56;;;12.31;66.50
15604;BME280;7902;49.042;9.092;2024-03-06T12:15:42;99495.59;;;12.36;66.36
15604;BME280;7902;49.042;9.092;2024-03-06T12:18:12;99497.63;;;12.43;65.77
15604;BME280;7902;49.042;9.092;2024-03-06T12:20:55;99496.69;;;12.44;65.68
15604;BME280;7902;49.042;9.092;2024-03-06T12:23:23;99500.28;;;12.43;65.90
15604;BME280;7902;49.042;9.092;2024-03-06T12:26:14;99497.19;;;12.49;65.51
15604;BME280;7902;49.042;9.092;2024-03-06T12:29:10;99499.63;;;12.52;65.46
15604;BME280;7902;49.042;9.092;2024-03-06T12:31:45;99499.94;;;12.48;65.86
15604;BME280;7902;49.042;9.092;2024-03-06T12:34:20;99505.34;;;12.46;65.57
15604;BME280;7902;49.042;9.092;2024-03-06T12:36:52;99497.63;;;12.32;66.36
15604;BME280;7902;49.042;9.092;2024-03-06T12:39:32;99504.09;;;12.39;65.73
15604;BME280;7902;49.042;9.092;2024-03-06T12:42:10;99503.88;;;12.42;65.62
15604;BME280;7902;49.042;9.092;2024-03-06T12:44:46;99503.06;;;12.53;65.50
15604;BME280;7902;49.042;9.092;2024-03-06T12:47:14;99498.63;;;12.42;66.14
15604;BME280;7902;49.042;9.092;2024-03-06T12:49:40;99501.13;;;12.44;65.50
15604;BME280;7902;49.042;9.092;2024-03-06T12:52:12;99507.84;;;12.48;65.85
15604;BME280;7902;49.042;9.092;2024-03-06T12:54:40;99505.94;;;12.50;65.58
15604;BME280;7902;49.042;9.092;2024-03-06T12:57:07;99502.81;;;12.45;65.67
15604;BME280;7902;49.042;9.092;2024-03-06T12:59:35;99502.53;;;12.37;66.46
15604;BME280;7902;49.042;9.092;2024-03-06T13:02:09;99497.88;;;12.40;65.40
15604;BME280;7902;49.042;9.092;2024-03-06T13:04:35;99504.56;;;12.33;66.29
15604;BME280;7902;49.042;9.092;2024-03-06T13:07:02;99499.00;;;12.49;65.28
15604;BME280;7902;49.042;9.092;2024-03-06T13:09:28;99494.84;;;12.33;66.34
15604;BME280;7902;49.042;9.092;2024-03-06T13:11:54;99486.16;;;12.44;65.50
15604;BME280;7902;49.042;9.092;2024-03-06T13:14:22;99498.13;;;12.37;65.42
15604;BME280;7902;49.042;9.092;2024-03-06T13:16:51;99497.44;;;12.46;65.34
15604;BME280;7902;49.042;9.092;2024-03-06T13:19:19;99491.22;;;12.47;65.31
15604;BME280;7902;49.042;9.092;2024-03-06T13:21:51;99493.00;;;12.47;65.63
15604;BME280;7902;49.042;9.092;2024-03-06T13:24:20;99490.81;;;12.41;66.89
15604;BME280;7902;49.042;9.092;2024-03-06T13:26:49;99489.28;;;12.49;66.33
15604;BME280;7902;49.042;9.092;2024-03-06T13:29:21;99489.88;;;12.42;66.48
15604;BME280;7902;49.042;9.092;2024-03-06T13:31:54;99498.38;;;12.45;66.70
15604;BME280;7902;49.042;9.092;2024-03-06T13:34:20;99493.56;;;12.39;66.49
15604;BME280;7902;49.042;9.092;2024-03-06T13:36:46;99493.13;;;12.45;66.63
15604;BME280;7902;49.042;9.092;2024-03-06T13:39:12;99495.16;;;12.53;65.95